Time;durP1;ratioP1;P1;durP2;ratioP2;P2;SDS_P1;SDS_P2;PMS_P1;PMS_P2;Temp;Humidity;BMP_temperature;BMP_pressure;BME280_temperature;BME280_humidity;BME280_pressure;Samples;Min_cycle;Max_cycle;Signal;HPM_P1;HPM_P2
2021/09/28 00:01:40;;;;;;;93.85;45.65;;;12.80;99.90;;;;;;5006273;28;20037;-71
2021/09/28 00:04:07;;;;;;;95.40;44.50;;;12.80;99.90;;;;;;5001901;28;20080;-71
2021/09/28 00:06:35;;;;;;;95.13;46.90;;;12.80;99.90;;;;;;4995842;28;20046;-72
2021/09/28 00:09:03;;;;;;;87.55;44.85;;;12.70;99.90;;;;;;5004987;28;20529;-71
2021/09/28 00:11:30;;;;;;;91.88;45.20;;;12.70;99.90;;;;;;5005338;28;20405;-70
2021/09/28 00:13:58;;;;;;;93.95;47.55;;;12.70;99.90;;;;;;5004943;28;20113;-71
2021/09/28 00:16:25;;;;;;;101.55;50.03;;;12.70;99.90;;;;;;4986191;28;20049;-71
2021/09/28 00:18:52;;;;;;;97.65;48.17;;;12.80;99.90;;;;;;5006560;28;20222;-70
2021/09/28 00:21:18;;;;;;;98.40;50.22;;;12.80;99.90;;;;;;5003950;28;20050;-71
2021/09/28 00:23:46;;;;;;;101.18;50.33;;;12.70;99.90;;;;;;5003598;28;20053;-72
2021/09/28 00:26:12;;;;;;;114.90;54.45;;;12.80;99.90;;;;;;5003593;28;20532;-71
2021/09/28 00:28:39;;;;;;;110.93;52.33;;;12.80;99.90;;;;;;5005351;28;20053;-71
2021/09/28 00:31:06;;;;;;;107.20;52.88;;;12.90;99.90;;;;;;4994450;28;20050;-70
2021/09/28 00:33:33;;;;;;;111.47;55.28;;;12.80;99.90;;;;;;4966264;28;20047;-71
2021/09/28 00:36:00;;;;;;;114.90;53.33;;;12.70;99.90;;;;;;5012814;28;20046;-70
2021/09/28 00:38:26;;;;;;;121.93;55.30;;;12.70;99.90;;;;;;4994775;28;20518;-71
2021/09/28 00:40:54;;;;;;;112.57;55.33;;;12.70;99.90;;;;;;4983041;28;20414;-71
2021/09/28 00:43:20;;;;;;;115.18;55.83;;;12.80;99.90;;;;;;5001624;28;20053;-72
2021/09/28 00:45:47;;;;;;;116.43;55.95;;;12.80;99.90;;;;;;5003616;28;20164;-71
2021/09/28 00:48:14;;;;;;;114.18;56.55;;;12.70;99.90;;;;;;5002127;28;20118;-70
2021/09/28 00:50:42;;;;;;;104.82;52.20;;;12.80;99.90;;;;;;5001515;28;20042;-69
2021/09/28 00:53:09;;;;;;;106.00;55.03;;;12.80;99.90;;;;;;5004056;28;20057;-69
2021/09/28 00:55:35;;;;;;;105.78;53.55;;;12.80;99.90;;;;;;5003693;28;20046;-70
2021/09/28 00:58:08;;;;;;;100.82;52.22;;;12.70;99.90;;;;;;5004497;28;20034;-70
2021/09/28 01:00:36;;;;;;;115.45;57.60;;;12.70;99.90;;;;;;4987880;28;20038;-70
2021/09/28 01:03:05;;;;;;;119.63;62.05;;;12.70;99.90;;;;;;5003339;28;20054;-70
2021/09/28 01:05:33;;;;;;;100.55;51.28;;;12.70;99.90;;;;;;4991202;28;20058;-70
2021/09/28 01:08:00;;;;;;;115.00;56.30;;;12.70;99.90;;;;;;4986067;28;20039;-69
2021/09/28 01:10:27;;;;;;;118.82;55.65;;;12.60;99.90;;;;;;4971206;28;20171;-70
2021/09/28 01:12:54;;;;;;;120.47;55.75;;;12.60;99.90;;;;;;4968703;28;20054;-68
2021/09/28 01:15:21;;;;;;;109.53;53.45;;;12.70;99.90;;;;;;4984203;28;20058;-69
2021/09/28 01:17:48;;;;;;;122.00;55.65;;;12.80;99.90;;;;;;4983229;28;20053;-70
2021/09/28 01:20:14;;;;;;;117.13;55.65;;;12.70;99.90;;;;;;5004838;28;20054;-71
2021/09/28 01:22:44;;;;;;;136.00;56.70;;;12.70;99.90;;;;;;4987602;28;20132;-71
2021/09/28 01:25:11;;;;;;;125.40;55.83;;;12.60;99.90;;;;;;5002315;28;20046;-70
2021/09/28 01:27:39;;;;;;;116.97;53.30;;;12.60;99.90;;;;;;4987161;28;20069;-69
2021/09/28 01:30:09;;;;;;;129.30;53.58;;;12.60;99.90;;;;;;4980910;28;20049;-69
2021/09/28 01:32:37;;;;;;;123.82;53.15;;;12.60;99.90;;;;;;4988225;28;20046;-70
2021/09/28 01:35:06;;;;;;;118.22;54.45;;;12.50;99.90;;;;;;4988832;28;20062;-72
2021/09/28 01:37:33;;;;;;;114.38;52.28;;;12.60;99.90;;;;;;4995845;28;20054;-70
2021/09/28 01:40:00;;;;;;;125.22;52.78;;;12.60;99.90;;;;;;4986234;28;20055;-72
2021/09/28 01:42:26;;;;;;;124.90;52.53;;;12.60;99.90;;;;;;5002196;28;20050;-70
2021/09/28 01:44:53;;;;;;;131.68;56.53;;;12.60;99.90;;;;;;5003410;28;20058;-70
2021/09/28 01:47:20;;;;;;;134.85;54.08;;;12.60;99.90;;;;;;4971236;28;20061;-70
2021/09/28 01:49:47;;;;;;;134.48;53.88;;;12.60;99.90;;;;;;5003460;28;20123;-70
2021/09/28 01:52:14;;;;;;;125.55;55.15;;;12.50;99.90;;;;;;5001304;28;20165;-70
2021/09/28 01:54:40;;;;;;;140.07;56.67;;;12.50;99.90;;;;;;5003304;28;20066;-70
2021/09/28 01:57:07;;;;;;;123.43;50.78;;;12.50;99.90;;;;;;5016445;28;20052;-71
2021/09/28 01:59:34;;;;;;;127.68;53.55;;;12.60;99.90;;;;;;4986060;28;20046;-70
2021/09/28 02:02:01;;;;;;;129.88;53.58;;;12.70;99.90;;;;;;4982750;28;20093;-70
2021/09/28 02:04:28;;;;;;;137.98;53.72;;;12.50;99.90;;;;;;4995378;28;20122;-70
2021/09/28 02:06:55;;;;;;;140.57;54.03;;;12.50;99.90;;;;;;4997604;28;20293;-70
2021/09/28 02:09:21;;;;;;;123.72;50.92;;;12.50;99.90;;;;;;4999821;28;20053;-71
2021/09/28 02:11:48;;;;;;;136.00;53.25;;;12.40;99.90;;;;;;5001885;28;20092;-70
2021/09/28 02:14:15;;;;;;;127.93;51.67;;;12.50;99.90;;;;;;4998896;28;20137;-70
2021/09/28 02:16:46;;;;;;;123.03;49.53;;;12.50;99.90;;;;;;4998764;28;20066;-70
2021/09/28 02:19:13;;;;;;;128.07;49.50;;;12.50;99.90;;;;;;5002040;28;20058;-70
2021/09/28 02:21:40;;;;;;;121.85;50.85;;;12.50;99.90;;;;;;5001788;28;20061;-70
2021/09/28 02:24:07;;;;;;;117.03;47.95;;;12.50;99.90;;;;;;5002572;28;20309;-70
2021/09/28 02:26:34;;;;;;;105.20;46.50;;;12.50;99.90;;;;;;5002944;28;20050;-70
2021/09/28 02:29:02;;;;;;;113.38;49.97;;;12.40;99.90;;;;;;4985157;28;20042;-70
2021/09/28 02:31:29;;;;;;;106.93;50.67;;;12.40;99.90;;;;;;4999330;28;20526;-70
2021/09/28 02:33:56;;;;;;;108.80;48.15;;;12.40;99.90;;;;;;4984540;28;20050;-70
2021/09/28 02:36:23;;;;;;;98.25;45.30;;;12.40;99.90;;;;;;4986493;28;20060;-70
2021/09/28 02:38:50;;;;;;;94.07;45.10;;;12.40;99.90;;;;;;5003856;28;20068;-69
2021/09/28 02:41:17;;;;;;;86.05;43.65;;;12.30;99.90;;;;;;4997336;28;20046;-69
2021/09/28 02:43:44;;;;;;;88.35;44.60;;;12.30;99.90;;;;;;4985551;28;20693;-70
2021/09/28 02:46:10;;;;;;;96.88;45.22;;;12.30;99.90;;;;;;4997076;28;20064;-68
2021/09/28 02:48:37;;;;;;;95.45;43.75;;;12.30;99.90;;;;;;4985568;28;20504;-71
2021/09/28 02:51:04;;;;;;;82.40;42.88;;;12.20;99.90;;;;;;5003623;28;20061;-70
2021/09/28 02:53:31;;;;;;;94.32;44.45;;;12.30;99.90;;;;;;4994389;28;20057;-70
2021/09/28 02:55:58;;;;;;;84.50;43.30;;;12.40;99.90;;;;;;4991910;28;20049;-70
2021/09/28 02:58:25;;;;;;;84.38;42.67;;;12.40;99.90;;;;;;5000969;28;20061;-70
2021/09/28 03:00:52;;;;;;;84.65;41.40;;;12.50;99.90;;;;;;5001807;28;20389;-71
2021/09/28 03:03:19;;;;;;;81.68;42.50;;;12.40;99.90;;;;;;4983915;28;20050;-70
2021/09/28 03:05:46;;;;;;;84.10;40.75;;;12.40;99.90;;;;;;4984734;28;20419;-71
2021/09/28 03:08:13;;;;;;;73.80;39.35;;;12.30;99.90;;;;;;4996144;28;20064;-70
2021/09/28 03:10:40;;;;;;;76.38;39.38;;;12.20;99.90;;;;;;5004507;28;20512;-70
2021/09/28 03:13:07;;;;;;;74.03;39.13;;;12.30;99.90;;;;;;4999318;28;20117;-70
2021/09/28 03:15:34;;;;;;;72.63;35.90;;;12.30;99.90;;;;;;4974503;28;20105;-69
2021/09/28 03:18:02;;;;;;;73.05;36.03;;;12.20;99.90;;;;;;4994701;28;20041;-70
2021/09/28 03:20:29;;;;;;;66.80;36.40;;;12.20;99.90;;;;;;4999098;28;20450;-70
2021/09/28 03:22:56;;;;;;;63.80;33.67;;;12.10;99.90;;;;;;5007871;28;20058;-70
2021/09/28 03:25:23;;;;;;;55.20;30.98;;;12.10;99.90;;;;;;5006896;28;20041;-70
2021/09/28 03:27:50;;;;;;;67.25;34.03;;;12.10;99.90;;;;;;5022111;28;20068;-69
2021/09/28 03:30:17;;;;;;;61.85;32.13;;;12.00;99.90;;;;;;4999832;28;20048;-71
2021/09/28 03:32:44;;;;;;;60.92;31.77;;;12.00;99.90;;;;;;4984696;28;20119;-72
2021/09/28 03:35:11;;;;;;;61.20;31.95;;;12.00;99.90;;;;;;4967045;28;20053;-69
2021/09/28 03:37:40;;;;;;;59.25;32.08;;;11.90;99.90;;;;;;4985163;28;20046;-71
2021/09/28 03:40:09;;;;;;;64.72;30.83;;;11.90;99.90;;;;;;5001413;28;20061;-71
2021/09/28 03:42:36;;;;;;;62.85;31.95;;;11.90;99.90;;;;;;4983514;28;20050;-69
2021/09/28 03:45:03;;;;;;;60.80;30.83;;;11.90;99.90;;;;;;4985143;28;20064;-70
2021/09/28 03:47:30;;;;;;;62.78;31.42;;;11.90;99.90;;;;;;4980185;28;20050;-69
2021/09/28 03:49:57;;;;;;;62.83;31.15;;;11.90;99.90;;;;;;5006047;28;20046;-70
2021/09/28 03:52:24;;;;;;;60.97;30.90;;;11.90;99.90;;;;;;5004829;28;20065;-69
2021/09/28 03:54:51;;;;;;;53.13;28.70;;;11.90;99.90;;;;;;5004240;28;20058;-70
2021/09/28 03:57:18;;;;;;;54.97;29.65;;;11.90;99.90;;;;;;5002288;28;20453;-70
2021/09/28 03:59:46;;;;;;;55.10;29.92;;;12.00;99.90;;;;;;5001446;28;20054;-70
2021/09/28 04:02:14;;;;;;;45.38;28.00;;;12.00;99.90;;;;;;5000494;28;20038;-70
2021/09/28 04:04:41;;;;;;;51.13;29.48;;;11.90;99.90;;;;;;4987457;28;20121;-70
2021/09/28 04:07:12;;;;;;;57.35;30.10;;;12.00;99.90;;;;;;4988332;28;20058;-70
2021/09/28 04:09:39;;;;;;;61.58;30.90;;;11.90;99.90;;;;;;4990056;28;20037;-69
2021/09/28 04:12:08;;;;;;;52.50;28.92;;;11.90;99.90;;;;;;4983132;28;20450;-69
2021/09/28 04:14:35;;;;;;;61.60;29.70;;;11.80;99.90;;;;;;4981907;28;20062;-69
2021/09/28 04:17:03;;;;;;;55.13;29.42;;;11.90;99.90;;;;;;4981922;28;20046;-69
2021/09/28 04:19:29;;;;;;;56.42;31.33;;;11.80;99.90;;;;;;5002660;28;20054;-71
2021/09/28 04:21:56;;;;;;;60.58;31.23;;;11.80;99.90;;;;;;5000905;28;20050;-70
2021/09/28 04:24:26;;;;;;;59.78;29.27;;;11.80;99.90;;;;;;5002836;28;20057;-70
2021/09/28 04:26:53;;;;;;;57.97;30.63;;;11.70;99.90;;;;;;5002171;28;20234;-70
2021/09/28 04:29:20;;;;;;;61.00;28.67;;;11.70;99.90;;;;;;5000386;28;20116;-69
2021/09/28 04:31:47;;;;;;;54.65;29.45;;;11.70;99.90;;;;;;4992797;28;20054;-70
2021/09/28 04:34:13;;;;;;;64.18;30.35;;;11.70;99.90;;;;;;5003534;28;20054;-70
2021/09/28 04:36:40;;;;;;;63.17;29.90;;;11.60;99.90;;;;;;4984252;28;20124;-71
2021/09/28 04:39:07;;;;;;;61.40;29.30;;;11.60;99.90;;;;;;5001555;28;20050;-70
2021/09/28 04:41:34;;;;;;;57.58;28.52;;;11.50;99.90;;;;;;4999664;28;20046;-71
2021/09/28 04:44:01;;;;;;;69.25;34.33;;;11.50;99.90;;;;;;4998882;28;20119;-70
2021/09/28 04:46:28;;;;;;;59.88;30.88;;;11.50;99.90;;;;;;4995958;28;20069;-70
2021/09/28 04:48:55;;;;;;;64.05;30.83;;;11.40;99.90;;;;;;4982490;28;20054;-70
2021/09/28 04:51:21;;;;;;;68.53;31.95;;;11.40;99.90;;;;;;4989683;28;20422;-70
2021/09/28 04:53:48;;;;;;;72.82;32.65;;;11.40;99.90;;;;;;5002260;28;20065;-70
2021/09/28 04:56:15;;;;;;;72.55;32.55;;;11.40;99.90;;;;;;5001079;28;20301;-70
2021/09/28 04:58:42;;;;;;;64.30;31.00;;;11.40;99.90;;;;;;5001765;28;20050;-71
2021/09/28 05:01:12;;;;;;;72.05;32.97;;;11.40;99.90;;;;;;4999703;28;20046;-70
2021/09/28 05:03:39;;;;;;;65.30;33.53;;;11.30;99.90;;;;;;4992185;28;20521;-70
2021/09/28 05:06:06;;;;;;;68.97;33.13;;;11.30;99.90;;;;;;4994377;28;20830;-72
2021/09/28 05:08:34;;;;;;;68.90;31.77;;;11.30;99.90;;;;;;4984318;28;20057;-69
2021/09/28 05:11:01;;;;;;;70.90;33.25;;;11.20;99.90;;;;;;5003089;28;20056;-69
2021/09/28 05:13:28;;;;;;;75.97;32.53;;;11.20;99.90;;;;;;5004803;28;20054;-71
2021/09/28 05:15:55;;;;;;;76.38;31.45;;;11.10;99.90;;;;;;4991665;28;20133;-69
2021/09/28 05:18:22;;;;;;;64.90;30.90;;;11.20;99.90;;;;;;4985124;28;20451;-69
2021/09/28 05:20:49;;;;;;;65.78;28.42;;;11.10;99.90;;;;;;4984918;28;20128;-69
2021/09/28 05:23:16;;;;;;;58.85;29.95;;;11.00;99.90;;;;;;4999155;28;20058;-70
2021/09/28 05:25:43;;;;;;;52.38;27.55;;;11.10;99.90;;;;;;5006193;28;20065;-70
2021/09/28 05:28:09;;;;;;;58.42;25.17;;;11.10;99.90;;;;;;5004880;28;20054;-70
2021/09/28 05:30:36;;;;;;;49.75;24.75;;;11.00;99.90;;;;;;4998446;28;20050;-70
2021/09/28 05:33:05;;;;;;;54.22;26.13;;;11.00;99.90;;;;;;4996011;28;20046;-70
2021/09/28 05:35:32;;;;;;;65.78;26.80;;;11.00;99.90;;;;;;5001588;28;20072;-69
2021/09/28 05:37:59;;;;;;;60.60;25.40;;;11.00;99.90;;;;;;5002218;28;20430;-70
2021/09/28 05:40:26;;;;;;;52.42;25.23;;;11.00;99.90;;;;;;5001012;28;20057;-69
2021/09/28 05:42:52;;;;;;;52.72;24.20;;;11.00;99.90;;;;;;5002194;28;20077;-69
2021/09/28 05:45:19;;;;;;;49.08;23.27;;;11.10;99.90;;;;;;4996556;28;20450;-70
2021/09/28 05:47:48;;;;;;;50.53;23.02;;;11.10;99.90;;;;;;4986633;28;20050;-70
2021/09/28 05:50:15;;;;;;;43.65;22.35;;;11.10;99.90;;;;;;4969470;28;20258;-70
2021/09/28 05:52:44;;;;;;;50.47;21.52;;;11.10;99.90;;;;;;4991639;28;20054;-70
2021/09/28 05:55:11;;;;;;;45.85;24.08;;;11.10;99.90;;;;;;5003267;28;20050;-69
2021/09/28 05:57:38;;;;;;;56.35;24.75;;;11.20;99.90;;;;;;5004978;28;20056;-70
2021/09/28 06:00:06;;;;;;;45.67;25.52;;;11.30;99.90;;;;;;5001045;28;20049;-70
2021/09/28 06:02:39;;;;;;;53.28;24.95;;;11.30;99.90;;;;;;4984819;28;20046;-70
2021/09/28 06:05:07;;;;;;;53.22;24.55;;;11.50;99.90;;;;;;5002298;28;20658;-69
2021/09/28 06:07:35;;;;;;;52.17;25.15;;;11.50;99.90;;;;;;5003109;28;20042;-69
2021/09/28 06:10:03;;;;;;;52.67;23.67;;;11.50;99.90;;;;;;4968958;28;20452;-70
2021/09/28 06:12:30;;;;;;;46.00;23.38;;;11.50;99.90;;;;;;4985529;28;20503;-70
2021/09/28 06:14:57;;;;;;;47.42;22.60;;;11.50;99.90;;;;;;4997629;28;20066;-69
2021/09/28 06:17:24;;;;;;;38.15;21.00;;;11.50;99.90;;;;;;4997859;28;20054;-69
2021/09/28 06:19:50;;;;;;;44.53;20.95;;;11.50;99.90;;;;;;4988683;28;20050;-69
2021/09/28 06:22:17;;;;;;;40.10;19.23;;;11.60;99.90;;;;;;4984639;28;20315;-70
2021/09/28 06:24:44;;;;;;;33.25;18.58;;;11.60;99.90;;;;;;5018979;28;20132;-70
2021/09/28 06:27:11;;;;;;;38.92;17.27;;;11.50;99.90;;;;;;5006356;28;20057;-69
2021/09/28 06:29:37;;;;;;;38.83;17.35;;;11.70;99.90;;;;;;5007431;28;20058;-69
2021/09/28 06:32:05;;;;;;;47.78;19.33;;;11.70;99.90;;;;;;4990245;28;20645;-69
2021/09/28 06:34:32;;;;;;;33.28;14.95;;;11.80;99.90;;;;;;4987205;28;20116;-70
2021/09/28 06:36:59;;;;;;;42.35;14.95;;;11.70;99.90;;;;;;4990349;28;20057;-70
2021/09/28 06:39:25;;;;;;;35.50;13.25;;;11.80;99.90;;;;;;5004614;28;20152;-69
2021/09/28 06:41:52;;;;;;;32.35;13.60;;;11.80;99.90;;;;;;5005444;28;20323;-69
2021/09/28 06:44:19;;;;;;;32.70;10.82;;;11.90;99.90;;;;;;5007310;28;20043;-69
2021/09/28 06:46:46;;;;;;;33.95;12.88;;;11.90;99.90;;;;;;4998785;28;20072;-70
2021/09/28 06:49:13;;;;;;;26.42;11.02;;;11.90;99.90;;;;;;4989923;28;20506;-69
2021/09/28 06:51:40;;;;;;;26.25;12.70;;;11.80;99.90;;;;;;4972126;28;20136;-70
2021/09/28 06:54:07;;;;;;;33.58;12.18;;;11.80;99.90;;;;;;5004096;28;20402;-70
2021/09/28 06:56:34;;;;;;;30.63;11.80;;;11.80;99.90;;;;;;5005272;28;20046;-70
2021/09/28 06:59:05;;;;;;;36.63;12.18;;;11.70;99.90;;;;;;5003263;28;20506;-70
2021/09/28 07:01:32;;;;;;;29.38;12.30;;;11.80;99.90;;;;;;4997854;28;20205;-71
2021/09/28 07:03:59;;;;;;;34.60;11.60;;;11.80;99.90;;;;;;4994697;28;20058;-70
2021/09/28 07:06:27;;;;;;;23.20;10.43;;;11.80;99.90;;;;;;5006518;28;20049;-70
2021/09/28 07:08:54;;;;;;;25.35;10.77;;;11.70;99.90;;;;;;5007629;28;20058;-70
2021/09/28 07:11:21;;;;;;;23.02;11.30;;;11.70;99.90;;;;;;5006309;28;20050;-71
2021/09/28 07:13:49;;;;;;;29.75;12.15;;;11.80;99.90;;;;;;5004822;28;20088;-71
2021/09/28 07:16:16;;;;;;;29.30;11.95;;;11.80;99.90;;;;;;4990424;28;20038;-71
2021/09/28 07:18:43;;;;;;;33.03;12.73;;;11.80;99.90;;;;;;5005403;28;20058;-71
2021/09/28 07:21:11;;;;;;;31.42;12.57;;;11.80;99.90;;;;;;5002708;28;20046;-71
2021/09/28 07:23:38;;;;;;;30.90;10.70;;;11.90;99.90;;;;;;5006013;28;20498;-71
2021/09/28 07:26:07;;;;;;;35.38;12.27;;;11.90;99.90;;;;;;4990579;28;20064;-71
2021/09/28 07:28:36;;;;;;;30.75;12.07;;;11.90;99.90;;;;;;4984607;28;20534;-71
2021/09/28 07:31:04;;;;;;;29.23;13.15;;;11.90;99.90;;;;;;4984016;28;20082;-70
2021/09/28 07:33:31;;;;;;;33.05;14.25;;;11.90;99.90;;;;;;4989571;28;20050;-71
2021/09/28 07:36:00;;;;;;;36.78;13.05;;;12.00;99.90;;;;;;4991938;28;20054;-70
2021/09/28 07:38:27;;;;;;;30.95;13.07;;;12.00;99.90;;;;;;5004509;28;20049;-71
2021/09/28 07:40:54;;;;;;;32.35;11.90;;;12.00;99.90;;;;;;5004433;28;20354;-71
2021/09/28 07:43:21;;;;;;;30.92;12.50;;;12.20;99.90;;;;;;4994380;28;20842;-71
2021/09/28 07:45:48;;;;;;;29.08;12.43;;;12.20;99.90;;;;;;4998177;28;20042;-70
2021/09/28 07:48:15;;;;;;;26.00;13.50;;;12.50;99.90;;;;;;5004067;28;20080;-71
2021/09/28 07:50:43;;;;;;;27.80;12.25;;;12.80;99.90;;;;;;5003620;28;20100;-70
2021/09/28 07:53:10;;;;;;;18.23;10.85;;;13.20;99.90;;;;;;5006263;28;20057;-70
2021/09/28 07:55:37;;;;;;;23.55;10.75;;;13.60;99.90;;;;;;5005634;28;20442;-70
2021/09/28 07:58:04;;;;;;;24.67;11.65;;;13.90;99.90;;;;;;4990071;28;20058;-70
2021/09/28 08:00:31;;;;;;;22.40;10.15;;;14.10;99.90;;;;;;5002775;28;20054;-71
2021/09/28 08:02:58;;;;;;;23.13;10.25;;;14.40;99.90;;;;;;4994978;28;20150;-71
2021/09/28 08:05:25;;;;;;;22.85;11.23;;;14.40;99.90;;;;;;5005606;28;20064;-70
2021/09/28 08:07:52;;;;;;;22.40;11.02;;;14.30;99.90;;;;;;5001535;28;20415;-70
2021/09/28 08:10:19;;;;;;;31.13;12.18;;;14.30;99.90;;;;;;4984783;28;20042;-71
2021/09/28 08:12:46;;;;;;;25.20;10.93;;;14.30;99.90;;;;;;5003528;28;20115;-70
2021/09/28 08:15:13;;;;;;;26.60;12.00;;;14.50;99.90;;;;;;4976461;28;20104;-71
2021/09/28 08:17:40;;;;;;;19.63;9.70;;;14.80;99.90;;;;;;4985954;28;20101;-69
2021/09/28 08:20:10;;;;;;;14.90;8.68;;;15.10;99.90;;;;;;5005257;28;20057;-71
2021/09/28 08:22:39;;;;;;;18.45;8.40;;;15.40;99.90;;;;;;5003763;28;20058;-70
2021/09/28 08:25:12;;;;;;;20.75;8.20;;;15.60;99.90;;;;;;5007464;28;20486;-70
2021/09/28 08:30:25;;;;;;;18.45;8.15;;;15.40;99.90;;;;;;5003449;28;20054;-71
2021/09/28 08:32:53;;;;;;;20.02;8.07;;;15.50;99.90;;;;;;4993346;28;20038;-71
2021/09/28 08:35:20;;;;;;;19.33;8.13;;;15.70;99.90;;;;;;4985649;28;20484;-70
2021/09/28 08:37:47;;;;;;;16.10;6.63;;;15.70;99.90;;;;;;4996442;28;20077;-71
2021/09/28 08:40:15;;;;;;;18.40;7.32;;;15.60;99.90;;;;;;5001000;28;20426;-71
2021/09/28 08:42:42;;;;;;;13.65;6.50;;;15.40;99.90;;;;;;5006430;28;20307;-70
2021/09/28 08:45:10;;;;;;;22.50;7.57;;;15.40;99.90;;;;;;5003150;28;20132;-70
2021/09/28 08:47:42;;;;;;;17.65;6.32;;;15.40;99.90;;;;;;4998060;28;20124;-71
2021/09/28 08:50:14;;;;;;;25.10;8.05;;;15.60;99.90;;;;;;4996705;28;20049;-70
2021/09/28 08:52:42;;;;;;;14.10;6.93;;;15.70;99.90;;;;;;5004991;28;20056;-71
2021/09/28 08:55:20;;;;;;;20.63;6.65;;;15.70;99.90;;;;;;5003623;28;20062;-71
2021/09/28 08:57:47;;;;;;;20.67;9.15;;;16.00;99.90;;;;;;5006341;28;20383;-70
2021/09/28 09:00:17;;;;;;;18.83;8.63;;;16.00;99.90;;;;;;5003326;28;20046;-71
2021/09/28 09:02:46;;;;;;;19.48;8.40;;;16.10;99.90;;;;;;4988996;28;20047;-69
2021/09/28 09:05:14;;;;;;;23.05;8.13;;;16.40;99.90;;;;;;4987630;28;20054;-71
2021/09/28 09:07:42;;;;;;;21.75;8.07;;;16.40;99.90;;;;;;4987946;28;20108;-71
2021/09/28 09:10:11;;;;;;;17.75;7.60;;;16.50;99.90;;;;;;4990795;28;20108;-71
2021/09/28 09:12:41;;;;;;;17.08;8.32;;;16.60;99.90;;;;;;5006992;28;20065;-71
2021/09/28 09:15:28;;;;;;;19.23;9.80;;;16.70;99.90;;;;;;4998882;28;20089;-70
2021/09/28 09:17:58;;;;;;;19.48;10.15;;;16.70;99.90;;;;;;5004185;28;20115;-71
2021/09/28 09:20:37;;;;;;;25.15;10.52;;;16.70;99.90;;;;;;5003698;28;20042;-70
2021/09/28 09:23:36;;;;;;;18.50;8.63;;;16.70;99.90;;;;;;4993549;28;20340;-71
2021/09/28 09:26:18;;;;;;;16.13;8.80;;;17.00;99.90;;;;;;5003417;28;20061;-71
2021/09/28 09:28:56;;;;;;;22.17;10.18;;;17.20;99.90;;;;;;5005061;28;20054;-71
2021/09/28 09:31:32;;;;;;;18.90;9.25;;;17.30;99.90;;;;;;5001932;28;20421;-71
2021/09/28 09:34:14;;;;;;;20.15;9.45;;;17.50;99.90;;;;;;4996302;28;20117;-71
2021/09/28 09:36:43;;;;;;;21.52;10.95;;;17.50;99.90;;;;;;4973577;28;20058;-70
2021/09/28 09:39:10;;;;;;;21.25;9.27;;;17.50;99.90;;;;;;4988452;28;20046;-71
2021/09/28 09:41:40;;;;;;;19.17;8.90;;;17.70;99.90;;;;;;4994460;28;20046;-72
2021/09/28 09:44:13;;;;;;;11.75;8.50;;;17.70;99.90;;;;;;4975294;28;20049;-72
2021/09/28 09:46:44;;;;;;;14.80;8.60;;;17.60;99.90;;;;;;5004288;28;20273;-70
2021/09/28 09:49:15;;;;;;;22.42;8.65;;;17.40;99.90;;;;;;5009242;28;20088;-70
2021/09/28 09:51:48;;;;;;;14.38;9.25;;;17.50;99.90;;;;;;5000090;28;20453;-70
2021/09/28 09:54:16;;;;;;;21.38;9.10;;;17.60;99.90;;;;;;4991321;28;20061;-71
2021/09/28 09:56:47;;;;;;;17.00;7.55;;;17.40;99.90;;;;;;5007091;28;20361;-70
2021/09/28 09:59:17;;;;;;;17.98;7.55;;;17.10;99.90;;;;;;4990301;28;20127;-70
2021/09/28 10:01:44;;;;;;;19.20;8.00;;;17.10;99.90;;;;;;4969704;28;20042;-70
2021/09/28 10:04:17;;;;;;;14.98;8.75;;;17.20;99.90;;;;;;4996242;28;20038;-70
2021/09/28 10:06:44;;;;;;;16.95;8.60;;;17.40;99.90;;;;;;4987548;28;20080;-70
2021/09/28 10:09:25;;;;;;;21.95;9.52;;;17.50;99.90;;;;;;5004120;28;20046;-71
2021/09/28 10:11:55;;;;;;;17.48;9.02;;;17.60;99.90;;;;;;5005946;28;20049;-71
2021/09/28 10:14:36;;;;;;;18.67;9.02;;;17.50;99.90;;;;;;5006714;28;20053;-71
2021/09/28 10:17:21;;;;;;;15.50;8.48;;;17.70;99.90;;;;;;5008754;28;20057;-70
2021/09/28 10:19:50;;;;;;;;;;;17.90;99.90;;;;;;5008669;28;20045;-70
2021/09/28 10:22:36;;;;;;;10.57;7.90;;;17.90;99.90;;;;;;4997263;28;20432;-70
2021/09/28 10:25:21;;;;;;;;;;;18.00;99.90;;;;;;4994044;28;20047;-69
2021/09/28 10:27:54;;;;;;;13.05;8.05;;;18.00;99.90;;;;;;4988375;28;20405;-70
2021/09/28 10:30:37;;;;;;;11.13;8.70;;;18.00;99.90;;;;;;4985540;28;20141;-70
2021/09/28 10:33:24;;;;;;;14.55;9.65;;;18.10;99.90;;;;;;4960008;28;20418;-70
2021/09/28 10:36:14;;;;;;;17.98;8.63;;;17.90;99.90;;;;;;5025396;28;20045;-70
2021/09/28 10:38:54;;;;;;;12.20;8.77;;;17.80;99.90;;;;;;5023303;28;20050;-71
2021/09/28 10:41:42;;;;;;;15.30;9.25;;;18.10;99.90;;;;;;5025351;28;20390;-70
2021/09/28 10:44:24;;;;;;;13.20;9.48;;;18.20;99.90;;;;;;5013486;28;20417;-71
2021/09/28 10:46:55;;;;;;;21.15;10.98;;;18.30;99.90;;;;;;4985982;28;20037;-70
2021/09/28 10:49:22;;;;;;;11.00;8.85;;;18.50;99.90;;;;;;5006458;28;20121;-70
2021/09/28 10:51:49;;;;;;;15.55;9.80;;;18.30;99.90;;;;;;4999258;28;20049;-70
2021/09/28 10:54:16;;;;;;;14.18;10.07;;;18.10;99.90;;;;;;5007795;28;20046;-70
2021/09/28 10:56:52;;;;;;;20.58;10.75;;;18.10;99.90;;;;;;5019163;28;20054;-71
2021/09/28 10:59:19;;;;;;;16.23;9.13;;;18.00;99.90;;;;;;5023819;28;20089;-70
2021/09/28 11:02:08;;;;;;;14.70;9.63;;;18.10;99.90;;;;;;4995315;28;20058;-70
2021/09/28 11:04:35;;;;;;;18.45;9.13;;;18.10;99.90;;;;;;5004427;28;20054;-70
2021/09/28 11:07:09;;;;;;;11.20;8.55;;;18.10;99.90;;;;;;4968226;28;20062;-71
2021/09/28 11:09:47;;;;;;;22.42;9.95;;;18.00;99.90;;;;;;4985192;28;20078;-70
2021/09/28 11:12:15;;;;;;;17.77;9.57;;;18.10;99.90;;;;;;4988406;28;20056;-69
2021/09/28 11:14:42;;;;;;;11.43;8.35;;;18.20;99.90;;;;;;5002642;28;20108;-69
2021/09/28 11:17:15;;;;;;;14.02;8.98;;;18.10;99.90;;;;;;4998516;28;20057;-70
2021/09/28 11:19:42;;;;;;;15.88;9.15;;;18.00;99.90;;;;;;4982552;28;20093;-69
2021/09/28 11:22:16;;;;;;;15.57;9.02;;;18.00;99.90;;;;;;4986587;28;20177;-68
2021/09/28 11:24:43;;;;;;;11.95;9.02;;;18.10;99.90;;;;;;4989783;28;20490;-71
2021/09/28 11:27:10;;;;;;;14.02;9.40;;;18.20;99.90;;;;;;4984478;28;20042;-70
2021/09/28 11:29:39;;;;;;;13.35;9.10;;;18.10;99.90;;;;;;5002381;28;20125;-70
2021/09/28 11:32:08;;;;;;;15.18;9.20;;;18.20;99.90;;;;;;4985974;28;20058;-69
2021/09/28 11:34:39;;;;;;;14.88;10.18;;;18.40;99.90;;;;;;5000307;28;20050;-70
2021/09/28 11:37:18;;;;;;;15.93;9.70;;;18.50;99.90;;;;;;5002578;28;20158;-71
2021/09/28 11:39:47;;;;;;;12.40;10.20;;;18.60;99.90;;;;;;5004472;28;20065;-70
2021/09/28 11:42:14;;;;;;;13.77;11.00;;;18.70;99.90;;;;;;4988831;28;20707;-70
2021/09/28 11:44:47;;;;;;;16.63;10.27;;;18.60;99.90;;;;;;5005608;28;20533;-70
2021/09/28 11:47:20;;;;;;;18.98;11.63;;;18.60;99.90;;;;;;4987945;28;20132;-70
2021/09/28 11:49:53;;;;;;;12.52;10.70;;;18.60;99.90;;;;;;4983126;28;20056;-71
2021/09/28 11:52:21;;;;;;;12.32;10.60;;;18.50;99.90;;;;;;4991524;28;20057;-70
2021/09/28 11:54:50;;;;;;;12.75;10.63;;;18.50;99.90;;;;;;4982640;28;20096;-71
2021/09/28 11:57:19;;;;;;;11.93;10.45;;;18.50;99.90;;;;;;4997343;28;20160;-70
2021/09/28 11:59:46;;;;;;;13.73;10.63;;;18.60;99.90;;;;;;5006086;28;20056;-70
2021/09/28 12:02:16;;;;;;;14.95;11.10;;;18.60;99.90;;;;;;5004021;28;20046;-70
2021/09/28 12:05:24;;;;;;;11.30;10.20;;;18.50;99.90;;;;;;5005484;28;20470;-70
2021/09/28 12:10:22;;;;;;;12.50;10.50;;;18.40;99.90;;;;;;4986137;28;20538;-68
2021/09/28 12:12:51;;;;;;;12.00;11.05;;;18.50;99.90;;;;;;4985716;28;20058;-69
2021/09/28 12:15:18;;;;;;;15.10;11.30;;;18.50;99.90;;;;;;4985933;28;20065;-68
2021/09/28 12:17:49;;;;;;;12.65;11.02;;;18.40;99.90;;;;;;5003005;28;20054;-69
2021/09/28 12:20:19;;;;;;;15.50;10.85;;;18.30;99.90;;;;;;5001265;28;20061;-69
2021/09/28 12:22:59;;;;;;;11.85;10.70;;;18.40;99.90;;;;;;4987326;28;20045;-69
2021/09/28 12:25:34;;;;;;;11.05;10.02;;;18.20;99.90;;;;;;4988844;28;20177;-68
2021/09/28 12:28:07;;;;;;;14.57;11.40;;;18.20;99.90;;;;;;4995467;28;20038;-69
2021/09/28 12:30:56;;;;;;;13.35;10.30;;;18.20;99.90;;;;;;4986292;28;20458;-69
2021/09/28 12:33:28;;;;;;;12.13;10.90;;;18.40;99.90;;;;;;4986928;28;20081;-68
2021/09/28 12:35:58;;;;;;;12.73;11.68;;;18.20;99.90;;;;;;4985555;28;20274;-69
2021/09/28 12:38:26;;;;;;;12.93;11.90;;;18.20;99.90;;;;;;5002643;28;20442;-69
2021/09/28 12:41:03;;;;;;;14.43;12.15;;;18.30;99.90;;;;;;4989785;28;20120;-69
2021/09/28 12:43:30;;;;;;;14.52;13.05;;;18.50;99.90;;;;;;5003216;28;20046;-69